createdAt,value
2022-11-20T00:00:57.394Z,51.70
2022-11-20T00:03:25.344Z,33.08
2022-11-20T00:05:53.295Z,26.52
2022-11-20T00:08:21.449Z,25.65
2022-11-20T00:10:50.652Z,47.28
2022-11-20T00:13:18.449Z,51.10
2022-11-20T00:15:46.316Z,48.10
2022-11-20T00:18:14.199Z,39.40
2022-11-20T00:20:42.065Z,38.90
2022-11-20T00:23:09.914Z,33.72
2022-11-20T00:25:37.715Z,22.35
2022-11-20T00:28:07.035Z,33.70
2022-11-20T00:30:34.919Z,42.17
2022-11-20T00:33:02.831Z,41.45
2022-11-20T00:35:30.659Z,37.00
2022-11-20T00:37:58.432Z,36.90
2022-11-20T00:40:26.299Z,29.13
2022-11-20T00:42:54.148Z,40.00
2022-11-20T00:45:23.418Z,48.35
2022-11-20T00:47:51.346Z,37.83
2022-11-20T00:50:19.254Z,47.30
2022-11-20T00:52:47.164Z,43.75
2022-11-20T00:55:15.434Z,27.02
2022-11-20T00:57:43.267Z,19.65
2022-11-20T01:00:11.853Z,17.40
2022-11-20T01:02:41.014Z,22.25
2022-11-20T01:05:09.411Z,30.25
2022-11-20T01:07:37.418Z,26.52
2022-11-20T01:10:05.910Z,24.83
2022-11-20T01:12:33.708Z,28.25
2022-11-20T01:15:01.845Z,28.45
2022-11-20T01:17:29.699Z,22.17
2022-11-20T01:19:58.915Z,28.60
2022-11-20T01:22:26.818Z,32.17
2022-11-20T01:24:54.640Z,20.38
2022-11-20T01:27:22.793Z,56.75
2022-11-20T01:29:50.711Z,21.13
2022-11-20T01:32:18.859Z,16.88
2022-11-20T01:34:47.139Z,14.95
2022-11-20T01:37:16.365Z,15.48
2022-11-20T01:39:44.244Z,15.27
2022-11-20T01:42:29.596Z,16.92
2022-11-20T01:44:59.430Z,20.08
2022-11-20T01:47:33.864Z,17.40
2022-11-20T01:50:07.416Z,16.63
2022-11-20T01:52:40.343Z,16.42
2022-11-20T01:55:11.344Z,15.90
2022-11-20T01:57:40.754Z,15.27
2022-11-20T02:00:12.779Z,18.45
2022-11-20T02:02:43.004Z,19.42
2022-11-20T02:05:18.895Z,19.02
2022-11-20T02:07:49.360Z,15.88
2022-11-20T02:10:17.711Z,16.65
2022-11-20T02:13:03.068Z,17.58
2022-11-20T02:15:30.983Z,17.70
2022-11-20T02:17:59.182Z,14.27
2022-11-20T02:20:27.974Z,13.13
2022-11-20T02:23:04.892Z,16.10
2022-11-20T02:25:37.313Z,17.27
2022-11-20T02:28:07.013Z,21.38
2022-11-20T02:30:34.912Z,15.80
2022-11-20T02:33:02.715Z,18.60
2022-11-20T02:35:45.715Z,24.75
2022-11-20T02:38:13.896Z,16.83
2022-11-20T02:40:43.155Z,12.57
2022-11-20T02:43:11.265Z,12.70
2022-11-20T02:45:39.180Z,11.65
2022-11-20T02:48:08.668Z,9.60
2022-11-20T02:50:40.190Z,12.20
2022-11-20T02:53:08.608Z,13.48
2022-11-20T02:55:36.560Z,8.90
2022-11-20T02:58:05.756Z,10.77
2022-11-20T03:00:34.564Z,13.07
2022-11-20T03:03:02.444Z,11.70
2022-11-20T03:05:30.267Z,12.32
2022-11-20T03:07:58.075Z,11.88
2022-11-20T03:10:25.943Z,11.10
2022-11-20T03:12:56.349Z,9.13
2022-11-20T03:15:26.228Z,9.43
2022-11-20T03:17:56.079Z,10.27
2022-11-20T03:20:24.689Z,9.45
2022-11-20T03:22:52.484Z,14.88
2022-11-20T03:25:20.375Z,14.85
2022-11-20T03:27:48.211Z,13.65
2022-11-20T03:30:16.621Z,13.07
2022-11-20T03:32:46.127Z,14.95
2022-11-20T03:35:14.236Z,15.38
2022-11-20T03:37:42.292Z,14.40
2022-11-20T03:40:11.312Z,18.40
2022-11-20T03:42:48.167Z,17.92
2022-11-20T03:45:16.708Z,28.30
2022-11-20T03:47:46.441Z,27.63
2022-11-20T03:50:15.497Z,15.00
2022-11-20T03:52:43.743Z,19.20
2022-11-20T03:55:11.765Z,20.42
2022-11-20T03:57:39.640Z,23.00
2022-11-20T04:00:08.691Z,12.48
2022-11-20T04:02:36.629Z,11.00
2022-11-20T04:05:06.402Z,14.32
2022-11-20T04:07:36.592Z,8.15
2022-11-20T04:10:04.948Z,8.70
2022-11-20T04:12:34.941Z,10.32
2022-11-20T04:15:03.036Z,10.25
2022-11-20T04:17:30.892Z,10.15
2022-11-20T04:19:58.780Z,9.15
2022-11-20T04:22:28.132Z,15.10
2022-11-20T04:24:55.983Z,15.63
2022-11-20T04:27:23.869Z,9.65
2022-11-20T04:29:51.700Z,11.68
2022-11-20T04:32:19.632Z,9.65
2022-11-20T04:34:47.647Z,10.98
2022-11-20T04:37:15.418Z,14.13
2022-11-20T04:39:44.830Z,10.93
2022-11-20T04:42:30.788Z,11.05
2022-11-20T04:44:59.205Z,9.38
2022-11-20T04:47:27.302Z,11.70
2022-11-20T04:49:55.267Z,10.02
2022-11-20T04:52:23.115Z,8.27
2022-11-20T04:54:53.883Z,9.45
2022-11-20T04:57:22.156Z,7.70
2022-11-20T04:59:50.043Z,8.02
2022-11-20T05:02:18.074Z,11.95
2022-11-20T05:04:45.912Z,10.30
2022-11-20T05:07:13.892Z,8.23
2022-11-20T05:09:41.758Z,8.57
2022-11-20T05:12:11.189Z,9.48
2022-11-20T05:14:39.086Z,10.48
2022-11-20T05:17:06.985Z,9.55
2022-11-20T05:19:34.866Z,10.38
2022-11-20T05:22:02.751Z,11.05
2022-11-20T05:24:30.584Z,9.98
2022-11-20T05:26:58.446Z,8.00
2022-11-20T05:29:27.652Z,8.23
2022-11-20T05:31:55.584Z,9.10
2022-11-20T05:34:23.524Z,9.80
2022-11-20T05:36:51.386Z,10.85
2022-11-20T05:39:19.537Z,10.05
2022-11-20T05:42:07.592Z,11.20
2022-11-20T05:44:36.855Z,8.95
2022-11-20T05:47:04.753Z,9.23
2022-11-20T05:49:32.615Z,9.50
2022-11-20T05:52:00.722Z,9.65
2022-11-20T05:54:28.612Z,12.90
2022-11-20T05:56:56.472Z,8.38
2022-11-20T05:59:24.419Z,12.15
2022-11-20T06:01:53.710Z,11.13
2022-11-20T06:04:21.845Z,11.30
2022-11-20T06:06:50.199Z,11.20
2022-11-20T06:09:18.282Z,9.38
2022-11-20T06:11:46.484Z,8.75
2022-11-20T06:14:14.449Z,9.13
2022-11-20T06:16:42.657Z,9.32
2022-11-20T06:19:11.943Z,12.20
2022-11-20T06:21:39.843Z,13.00
2022-11-20T06:24:08.460Z,11.30
2022-11-20T06:26:36.383Z,10.18
2022-11-20T06:29:04.745Z,9.48
2022-11-20T06:31:38.621Z,11.52
2022-11-20T06:34:07.197Z,10.57
2022-11-20T06:36:37.115Z,11.32
2022-11-20T06:39:05.367Z,18.05
2022-11-20T06:41:33.247Z,13.77
2022-11-20T06:44:01.126Z,9.43
2022-11-20T06:46:29.195Z,9.75
2022-11-20T06:48:57.093Z,10.98
2022-11-20T06:51:24.961Z,10.82
2022-11-20T06:53:55.101Z,10.93
2022-11-20T06:56:23.157Z,11.18
2022-11-20T06:58:51.029Z,9.60
2022-11-20T07:01:19.346Z,10.13
2022-11-20T07:03:52.883Z,11.68
2022-11-20T07:06:22.032Z,9.80
2022-11-20T07:08:52.185Z,9.25
2022-11-20T07:11:21.608Z,8.57
2022-11-20T07:13:49.471Z,8.05
2022-11-20T07:16:17.864Z,13.00
2022-11-20T07:18:50.201Z,9.07
2022-11-20T07:21:19.321Z,10.30
2022-11-20T07:23:47.203Z,12.13
2022-11-20T07:26:15.139Z,9.85
2022-11-20T07:28:51.076Z,15.65
2022-11-20T07:31:19.806Z,13.88
2022-11-20T07:33:48.036Z,13.10
2022-11-20T07:36:15.965Z,13.63
2022-11-20T07:38:43.839Z,12.15
2022-11-20T07:41:11.785Z,11.43
2022-11-20T07:43:41.410Z,10.63
2022-11-20T07:46:11.142Z,7.38
2022-11-20T07:48:40.164Z,13.65
2022-11-20T07:51:11.568Z,13.07
2022-11-20T07:53:39.556Z,11.65
2022-11-20T07:56:10.609Z,12.57
2022-11-20T07:58:38.449Z,14.55
2022-11-20T08:01:08.783Z,7.25
2022-11-20T08:03:39.468Z,8.00
2022-11-20T08:06:08.188Z,10.13
2022-11-20T08:08:42.490Z,8.80
2022-11-20T08:11:42.997Z,9.02
2022-11-20T08:14:13.898Z,8.45
2022-11-20T08:16:42.795Z,8.60
2022-11-20T08:19:16.633Z,8.07
2022-11-20T08:21:46.986Z,7.40
2022-11-20T08:24:15.043Z,8.25
2022-11-20T08:26:43.518Z,7.50
2022-11-20T08:29:11.420Z,8.95
2022-11-20T08:31:39.478Z,8.77
2022-11-20T08:34:09.429Z,9.10
2022-11-20T08:36:39.362Z,6.60
2022-11-20T08:39:07.130Z,8.30
2022-11-20T08:41:35.041Z,8.40
2022-11-20T08:44:04.971Z,7.65
2022-11-20T08:46:36.464Z,6.13
2022-11-20T08:49:06.982Z,9.10
2022-11-20T08:51:35.385Z,8.73
2022-11-20T08:54:05.589Z,8.75
2022-11-20T08:56:34.122Z,10.80
2022-11-20T08:59:20.583Z,10.02
2022-11-20T09:01:49.863Z,12.57
2022-11-20T09:04:17.708Z,11.18
2022-11-20T09:06:45.498Z,12.65
2022-11-20T09:09:14.841Z,16.15
2022-11-20T09:11:42.658Z,9.43
2022-11-20T09:14:11.976Z,14.45
2022-11-20T09:16:39.998Z,16.98
2022-11-20T09:19:34.530Z,12.05
2022-11-20T09:22:02.027Z,8.88
2022-11-20T09:24:39.913Z,8.40
2022-11-20T09:27:07.775Z,7.53
2022-11-20T09:29:35.740Z,9.70
2022-11-20T09:32:07.148Z,7.22
2022-11-20T09:34:35.349Z,8.60
2022-11-20T09:37:06.334Z,7.35
2022-11-20T09:39:39.997Z,8.05
2022-11-20T09:42:28.074Z,9.05
2022-11-20T09:45:20.916Z,6.93
2022-11-20T09:48:06.564Z,7.93
2022-11-20T09:50:38.722Z,6.32
2022-11-20T09:53:15.981Z,9.73
2022-11-20T09:55:45.399Z,8.95
2022-11-20T09:58:18.559Z,11.45
2022-11-20T10:00:46.751Z,12.30
2022-11-20T10:03:20.324Z,12.07
2022-11-20T10:05:52.549Z,10.95
2022-11-20T10:08:25.325Z,7.60
2022-11-20T10:11:02.539Z,9.80
2022-11-20T10:13:42.393Z,6.57
2022-11-20T10:16:23.498Z,9.32
2022-11-20T10:19:07.609Z,7.35
2022-11-20T10:21:46.006Z,10.10
2022-11-20T10:24:54.455Z,4.57
2022-11-20T10:27:42.898Z,4.60
2022-11-20T10:30:13.564Z,7.40
2022-11-20T10:32:44.604Z,6.63
2022-11-20T10:35:23.620Z,7.97
2022-11-20T10:37:57.477Z,10.63
2022-11-20T10:40:32.027Z,8.18
2022-11-20T10:43:10.716Z,6.43
2022-11-20T10:45:48.964Z,9.40
2022-11-20T10:48:25.477Z,7.40
2022-11-20T10:51:05.435Z,9.02
2022-11-20T10:53:54.361Z,6.97
2022-11-20T10:56:30.634Z,9.20
2022-11-20T11:01:52.148Z,13.00
2022-11-20T11:04:32.178Z,8.82
2022-11-20T11:07:09.014Z,8.20
2022-11-20T11:09:41.926Z,9.73
2022-11-20T11:12:10.876Z,7.50
2022-11-20T11:14:49.624Z,7.07
2022-11-20T11:17:30.636Z,8.55
2022-11-20T11:20:08.386Z,10.70
2022-11-20T11:22:45.887Z,7.10
2022-11-20T11:25:23.122Z,9.07
2022-11-20T11:27:52.421Z,14.80
2022-11-20T11:30:21.896Z,12.05
2022-11-20T11:32:51.553Z,11.70
2022-11-20T11:35:26.437Z,10.80
2022-11-20T11:37:56.820Z,11.93
2022-11-20T11:40:28.094Z,9.20
2022-11-20T11:42:59.980Z,8.77
2022-11-20T11:45:27.282Z,10.05
2022-11-20T11:48:00.365Z,12.45
2022-11-20T11:50:29.801Z,8.75
2022-11-20T11:53:11.072Z,28.90
2022-11-20T11:55:44.598Z,16.05
2022-11-20T11:58:27.904Z,11.25
2022-11-20T12:01:01.282Z,13.02
2022-11-20T12:03:37.283Z,7.38
2022-11-20T12:06:12.759Z,8.07
2022-11-20T12:08:49.695Z,7.68
2022-11-20T12:11:33.193Z,7.65
2022-11-20T12:14:06.485Z,5.50
2022-11-20T12:16:38.660Z,6.40
2022-11-20T12:19:12.383Z,5.72
2022-11-20T12:21:47.506Z,6.82
2022-11-20T12:24:39.356Z,7.38
2022-11-20T12:27:40.220Z,7.03
2022-11-20T12:30:11.815Z,7.30
2022-11-20T12:32:58.630Z,10.10
2022-11-20T12:35:46.749Z,8.88
2022-11-20T12:38:42.888Z,5.53
2022-11-20T12:41:38.710Z,7.15
2022-11-20T12:44:37.522Z,5.75
2022-11-20T12:47:18.633Z,4.38
2022-11-20T12:49:55.832Z,9.00
2022-11-20T12:52:41.462Z,9.57
2022-11-20T12:55:23.415Z,5.57
2022-11-20T12:58:00.306Z,8.35
2022-11-20T13:00:28.515Z,15.25
2022-11-20T13:03:27.051Z,4.97
2022-11-20T13:06:02.303Z,4.22
2022-11-20T13:08:36.150Z,4.53
2022-11-20T13:11:13.678Z,8.23
2022-11-20T13:13:49.002Z,5.03
2022-11-20T13:16:25.941Z,4.45
2022-11-20T13:18:54.120Z,4.20
2022-11-20T13:21:36.661Z,4.90
2022-11-20T13:24:08.642Z,4.80
2022-11-20T13:26:36.968Z,6.13
2022-11-20T13:29:11.547Z,6.75
2022-11-20T13:31:53.584Z,4.25
2022-11-20T13:34:27.577Z,4.85
2022-11-20T13:36:57.242Z,4.32
2022-11-20T13:39:30.480Z,8.18
2022-11-20T13:42:03.098Z,6.78
2022-11-20T13:44:36.681Z,15.27
2022-11-20T13:47:04.701Z,12.00
2022-11-20T13:49:35.198Z,27.98
2022-11-20T13:52:31.402Z,49.05
2022-11-20T13:55:13.609Z,54.35
2022-11-20T13:58:23.285Z,65.55
2022-11-20T14:00:59.298Z,77.65
2022-11-20T14:03:59.093Z,87.82
2022-11-20T14:06:28.557Z,86.07
2022-11-20T14:09:02.716Z,97.82
2022-11-20T14:11:33.252Z,119.47
2022-11-20T14:14:04.063Z,136.73
2022-11-20T14:16:33.981Z,146.45
2022-11-20T14:19:28.547Z,79.65
2022-11-20T14:22:12.049Z,78.50
2022-11-20T14:24:40.192Z,82.55
2022-11-20T14:27:15.215Z,90.45
2022-11-20T14:29:44.593Z,78.57
2022-11-20T14:32:13.047Z,73.00
2022-11-20T14:34:44.034Z,86.10
2022-11-20T14:37:17.037Z,94.60
2022-11-20T14:39:57.544Z,87.78
2022-11-20T14:42:29.135Z,73.05
2022-11-20T14:44:59.406Z,92.82
2022-11-20T14:47:29.572Z,95.75
2022-11-20T14:49:59.327Z,75.40
2022-11-20T14:52:28.926Z,80.95
2022-11-20T14:55:00.610Z,80.05
2022-11-20T14:57:32.021Z,82.75
2022-11-20T15:00:22.384Z,88.70
2022-11-20T15:02:51.556Z,90.45
2022-11-20T15:05:21.824Z,84.65
2022-11-20T15:07:52.172Z,104.72
2022-11-20T15:10:25.676Z,115.88
2022-11-20T15:12:57.910Z,127.70
2022-11-20T15:15:32.482Z,124.57
2022-11-20T15:18:01.046Z,127.47
2022-11-20T15:20:33.420Z,116.53
2022-11-20T15:23:01.649Z,133.43
2022-11-20T15:25:30.542Z,122.57
2022-11-20T15:28:07.261Z,127.93
2022-11-20T15:30:42.628Z,124.20
2022-11-20T15:33:14.031Z,130.45
2022-11-20T15:35:42.177Z,122.43
2022-11-20T15:38:24.158Z,119.30
2022-11-20T15:40:53.598Z,106.47
2022-11-20T15:43:28.202Z,109.93
2022-11-20T15:46:02.691Z,110.53
2022-11-20T15:48:48.486Z,114.55
2022-11-20T15:51:27.169Z,105.68
2022-11-20T15:53:56.783Z,118.60
2022-11-20T15:59:15.766Z,109.45
2022-11-20T16:01:43.962Z,101.88
2022-11-20T16:04:14.265Z,108.15
2022-11-20T16:06:42.451Z,102.30
2022-11-20T16:09:10.755Z,103.50
2022-11-20T16:11:39.514Z,103.55
2022-11-20T16:14:29.249Z,107.50
2022-11-20T16:16:58.643Z,108.85
2022-11-20T16:19:28.597Z,101.55
2022-11-20T16:22:02.319Z,102.25
2022-11-20T16:24:30.986Z,95.95
2022-11-20T16:26:59.373Z,92.22
2022-11-20T16:29:27.504Z,85.43
2022-11-20T16:31:55.563Z,87.82
2022-11-20T16:34:25.767Z,93.07
2022-11-20T16:36:54.152Z,82.85
2022-11-20T16:39:24.058Z,84.88
2022-11-20T16:41:52.419Z,101.82
2022-11-20T16:44:20.537Z,86.82
2022-11-20T16:46:48.818Z,96.43
2022-11-20T16:49:16.998Z,102.50
2022-11-20T16:51:47.666Z,96.68
2022-11-20T16:54:20.540Z,88.78
2022-11-20T16:56:52.017Z,94.22
2022-11-20T16:59:20.582Z,89.50
2022-11-20T17:01:48.776Z,89.47
2022-11-20T17:04:17.188Z,81.40
2022-11-20T17:06:48.011Z,89.88
2022-11-20T17:09:16.225Z,85.28
2022-11-20T17:11:45.737Z,87.32
2022-11-20T17:14:14.149Z,80.80
2022-11-20T17:16:43.118Z,70.00
2022-11-20T17:19:13.692Z,65.45
2022-11-20T17:21:42.286Z,68.85
2022-11-20T17:24:13.246Z,73.93
2022-11-20T17:26:43.130Z,76.00
2022-11-20T17:29:13.109Z,65.13
2022-11-20T17:31:42.258Z,60.10
2022-11-20T17:34:12.912Z,65.95
2022-11-20T17:36:45.213Z,64.32
2022-11-20T17:39:16.385Z,62.53
2022-11-20T17:41:44.450Z,66.30
2022-11-20T17:44:13.597Z,70.60
2022-11-20T17:46:41.970Z,63.20
2022-11-20T17:49:09.843Z,58.95
2022-11-20T17:51:37.859Z,61.65
2022-11-20T17:54:08.555Z,63.05
2022-11-20T17:56:55.688Z,80.85
2022-11-20T17:59:23.913Z,70.25
2022-11-20T18:01:51.839Z,71.60
2022-11-20T18:04:19.716Z,47.33
2022-11-20T18:06:47.970Z,40.42
2022-11-20T18:09:15.831Z,35.90
2022-11-20T18:11:45.543Z,48.55
2022-11-20T18:14:29.375Z,28.77
2022-11-20T18:16:59.294Z,34.15
2022-11-20T18:19:32.208Z,30.45
2022-11-20T18:22:01.978Z,29.17
2022-11-20T18:24:29.887Z,23.05
2022-11-20T18:26:59.630Z,49.75
2022-11-20T18:29:31.109Z,56.75
2022-11-20T18:31:59.936Z,69.05
2022-11-20T18:34:28.830Z,69.70
2022-11-20T18:36:56.850Z,68.13
2022-11-20T18:39:25.064Z,66.13
2022-11-20T18:42:10.226Z,68.65
2022-11-20T18:44:55.522Z,24.88
2022-11-20T18:47:25.662Z,24.02
2022-11-20T18:49:57.190Z,28.48
2022-11-20T18:52:26.783Z,34.22
2022-11-20T18:54:55.452Z,34.80
2022-11-20T18:57:27.075Z,20.50
2022-11-20T19:00:06.780Z,21.33
2022-11-20T19:02:41.522Z,14.13
2022-11-20T19:05:10.603Z,12.63
2022-11-20T19:07:38.767Z,9.27
2022-11-20T19:10:08.438Z,10.32
2022-11-20T19:12:36.398Z,14.00
2022-11-20T19:15:06.282Z,9.00
2022-11-20T19:17:34.205Z,9.95
2022-11-20T19:20:02.133Z,9.27
2022-11-20T19:22:29.998Z,8.90
2022-11-20T19:24:57.952Z,5.30
2022-11-20T19:27:25.831Z,10.07
2022-11-20T19:29:57.591Z,8.80
2022-11-20T19:32:26.848Z,9.05
2022-11-20T19:34:54.685Z,12.40
2022-11-20T19:37:22.675Z,11.95
2022-11-20T19:39:51.412Z,15.30
2022-11-20T19:42:21.006Z,13.75
2022-11-20T19:44:50.447Z,12.50
2022-11-20T19:47:18.860Z,15.95
2022-11-20T19:49:48.761Z,11.63
2022-11-20T19:52:16.900Z,9.73
2022-11-20T19:54:44.991Z,11.68
2022-11-20T19:57:13.217Z,8.82
2022-11-20T19:59:42.077Z,7.13
2022-11-20T20:02:12.624Z,7.07
2022-11-20T20:04:41.154Z,14.38
2022-11-20T20:07:10.661Z,23.73
2022-11-20T20:09:40.407Z,24.70
2022-11-20T20:12:08.931Z,22.55
2022-11-20T20:14:40.225Z,17.20
2022-11-20T20:17:08.139Z,26.17
2022-11-20T20:19:36.378Z,16.02
2022-11-20T20:22:04.265Z,23.30
2022-11-20T20:24:33.583Z,20.48
2022-11-20T20:27:01.503Z,25.60
2022-11-20T20:29:29.485Z,34.22
2022-11-20T20:31:57.349Z,37.08
2022-11-20T20:34:29.651Z,24.13
2022-11-20T20:36:57.517Z,38.75
2022-11-20T20:39:25.548Z,36.63
2022-11-20T20:41:55.180Z,34.15
2022-11-20T20:44:40.379Z,33.78
2022-11-20T20:47:08.366Z,29.50
2022-11-20T20:49:36.603Z,34.42
2022-11-20T20:52:04.894Z,23.88
2022-11-20T20:54:34.548Z,15.00
2022-11-20T20:57:04.368Z,13.43
2022-11-20T20:59:32.171Z,15.65
2022-11-20T21:02:00.211Z,19.77
2022-11-20T21:04:28.072Z,33.85
2022-11-20T21:06:55.944Z,34.40
2022-11-20T21:09:24.079Z,50.40
2022-11-20T21:11:52.029Z,33.67
2022-11-20T21:14:21.892Z,48.00
2022-11-20T21:16:49.984Z,53.15
2022-11-20T21:19:18.035Z,52.70
2022-11-20T21:22:00.380Z,60.55
2022-11-20T21:24:29.124Z,50.97
2022-11-20T21:26:58.192Z,59.70
2022-11-20T21:29:29.046Z,57.83
2022-11-20T21:31:57.458Z,48.28
2022-11-20T21:34:26.326Z,51.15
2022-11-20T21:36:54.440Z,48.55
2022-11-20T21:39:22.961Z,44.58
2022-11-20T21:41:50.842Z,53.97
2022-11-20T21:44:34.331Z,57.00
2022-11-20T21:47:03.699Z,55.20
2022-11-20T21:49:31.715Z,49.28
2022-11-20T21:51:59.639Z,48.60
2022-11-20T21:54:27.601Z,42.20
2022-11-20T21:56:55.584Z,32.05
2022-11-20T21:59:23.857Z,42.15
2022-11-20T22:01:51.794Z,44.05
2022-11-20T22:04:22.897Z,53.13
2022-11-20T22:06:50.977Z,52.08
2022-11-20T22:09:19.081Z,57.33
2022-11-20T22:11:46.902Z,63.33
2022-11-20T22:14:23.704Z,65.63
2022-11-20T22:16:54.632Z,52.78
2022-11-20T22:19:24.422Z,57.63
2022-11-20T22:21:52.680Z,64.97
2022-11-20T22:24:22.551Z,69.32
2022-11-20T22:26:50.830Z,70.93
2022-11-20T22:29:20.861Z,63.22
2022-11-20T22:31:48.812Z,54.72
2022-11-20T22:34:16.739Z,55.35
2022-11-20T22:36:46.004Z,58.28
2022-11-20T22:39:14.177Z,56.92
2022-11-20T22:41:42.066Z,52.92
2022-11-20T22:44:10.048Z,38.97
2022-11-20T22:46:38.717Z,48.13
2022-11-20T22:49:09.431Z,56.17
2022-11-20T22:51:39.562Z,56.30
2022-11-20T22:54:11.551Z,53.92
2022-11-20T22:56:39.559Z,56.05
2022-11-20T22:59:07.388Z,47.92
2022-11-20T23:01:37.630Z,27.70
2022-11-20T23:04:08.108Z,43.10
2022-11-20T23:06:36.294Z,37.65
2022-11-20T23:09:05.549Z,34.80
2022-11-20T23:11:35.432Z,39.70
2022-11-20T23:14:05.215Z,43.38
2022-11-20T23:16:34.710Z,42.20
2022-11-20T23:19:04.902Z,54.88
2022-11-20T23:21:33.336Z,63.20
2022-11-20T23:24:02.015Z,71.43
2022-11-20T23:26:31.898Z,73.70
2022-11-20T23:29:02.247Z,69.80
2022-11-20T23:31:31.931Z,61.80
2022-11-20T23:34:00.368Z,67.05
2022-11-20T23:36:28.521Z,66.53
2022-11-20T23:38:56.438Z,67.60
2022-11-20T23:41:24.358Z,67.22
2022-11-20T23:43:52.549Z,67.75
2022-11-20T23:46:21.870Z,76.45
2022-11-20T23:48:50.028Z,82.53
2022-11-20T23:51:18.073Z,67.63
2022-11-20T23:53:45.895Z,65.63
2022-11-20T23:56:15.424Z,57.58
2022-11-20T23:58:44.451Z,54.05
